메인 페이지
METAR-TAF:

METAR-TAF

공항 :

도지시티, 캔자스, 미국

위도: 37-46-22N, 경도: 099-58-11W, 고도: 790m

현재 날씨관측

예보는 25분 전, 00:52시(UTC)에 발표되었습니다.
서북서6kt
온도 12°C
습도 35%
기압 1005 hPa
시정: 16.1km
고도 12000ft 상공 구름 조금

METAR: KDDC 210052Z AUTO 30006KT 10SM FEW120 12/M03 A2969 RMK AO2 SLP045 T01221033

시각: 20:17 (01:17 UTC)

예보

예보는 1 시간 57분 전, 23:20시(UTC)에 발표되었습니다.
예보 대상 시간: 21일 00시부터 21일 24시까지 (UTC)
북북서15kt, 순간 최대 풍속 22kt
시정: 10km
고도 20000ft 상공 구름 보통
21일 0500시부터 (UTC)
서북서15kt, 순간 최대 풍속 23kt
시정: 10km
맑음
21일 1700시부터 (UTC)
북서20kt, 순간 최대 풍속 30kt
시정: 10km
맑음

TAF: KDDC 202320Z 2100/2124 33015G22KT P6SM SCT200 FM210500 30015G23KT P6SM SKC FM211700 32020G30KT P6SM SKC

4,000개 이상의 공항 관측 자료 및 예보 (METAR 및 TAF 보고).

지도상에서 검색 가능한 기상관측소가 노란 점과 빨간 점으로 표시되어 있습니다.

기상관측소 명을 보려면 표시 위로 마우스를 이동하세요.

날씨 관측과 예보를 보려면 클릭하세요.

지도 변경 : 확대하려면 엑스 표시가 있는 녹색 버튼, 축소하려면 빼기 표시가 있는 녹색 버튼, 다음 페이지의 지도를 보려면 녹색 화살표를 클릭하세요.


METAR-TAF: